sensor_id;sensor_type;location;lat;lon;timestamp;pressure;altitude;pressure_sealevel;temperature;humidity
48244;BME280;34053;51.088;6.572;2023-05-22T00:02:26;100789.75;;;21.82;58.77
48244;BME280;34053;51.088;6.572;2023-05-22T00:05:17;100788.91;;;21.81;58.61
48244;BME280;34053;51.088;6.572;2023-05-22T00:08:09;100781.91;;;21.67;59.56
48244;BME280;34053;51.088;6.572;2023-05-22T00:11:01;100783.16;;;21.75;59.31
48244;BME280;34053;51.088;6.572;2023-05-22T00:13:53;100782.88;;;21.66;59.61
48244;BME280;34053;51.088;6.572;2023-05-22T00:16:43;100782.63;;;21.69;59.15
48244;BME280;34053;51.088;6.572;2023-05-22T00:19:35;100775.81;;;21.65;59.37
48244;BME280;34053;51.088;6.572;2023-05-22T00:22:26;100781.03;;;21.67;59.04
48244;BME280;34053;51.088;6.572;2023-05-22T00:25:18;100782.56;;;21.58;59.40
48244;BME280;34053;51.088;6.572;2023-05-22T00:28:10;100779.03;;;21.58;58.95
48244;BME280;34053;51.088;6.572;2023-05-22T00:31:01;100781.78;;;21.56;59.23
48244;BME280;34053;51.088;6.572;2023-05-22T00:33:52;100770.38;;;21.54;59.54
48244;BME280;34053;51.088;6.572;2023-05-22T00:36:43;100774.00;;;21.53;59.52
48244;BME280;34053;51.088;6.572;2023-05-22T00:39:34;100765.03;;;21.54;59.56
48244;BME280;34053;51.088;6.572;2023-05-22T00:42:25;100758.56;;;21.45;59.61
48244;BME280;34053;51.088;6.572;2023-05-22T00:45:16;100769.34;;;21.44;59.81
48244;BME280;34053;51.088;6.572;2023-05-22T00:48:07;100767.84;;;21.39;59.45
48244;BME280;34053;51.088;6.572;2023-05-22T00:50:59;100769.88;;;21.36;59.51
48244;BME280;34053;51.088;6.572;2023-05-22T00:53:50;100767.66;;;21.30;59.74
48244;BME280;34053;51.088;6.572;2023-05-22T00:56:41;100767.66;;;21.30;59.52
48244;BME280;34053;51.088;6.572;2023-05-22T00:59:33;100770.34;;;21.30;59.62
48244;BME280;34053;51.088;6.572;2023-05-22T01:02:23;100765.09;;;21.28;59.26
48244;BME280;34053;51.088;6.572;2023-05-22T01:05:14;100761.69;;;21.26;59.45
48244;BME280;34053;51.088;6.572;2023-05-22T01:08:08;100767.38;;;21.21;59.74
48244;BME280;34053;51.088;6.572;2023-05-22T01:11:15;100774.50;;;21.21;59.77
48244;BME280;34053;51.088;6.572;2023-05-22T01:14:35;100763.31;;;21.16;59.72
48244;BME280;34053;51.088;6.572;2023-05-22T01:17:46;100772.41;;;21.13;59.58
48244;BME280;34053;51.088;6.572;2023-05-22T01:20:49;100771.53;;;21.13;59.59
48244;BME280;34053;51.088;6.572;2023-05-22T01:32:56;100770.81;;;20.98;59.92
48244;BME280;34053;51.088;6.572;2023-05-22T01:35:50;100767.50;;;20.94;59.88
48244;BME280;34053;51.088;6.572;2023-05-22T01:38:45;100777.44;;;20.92;59.71
48244;BME280;34053;51.088;6.572;2023-05-22T01:41:36;100771.34;;;20.90;59.62
48244;BME280;34053;51.088;6.572;2023-05-22T01:44:27;100774.13;;;20.88;59.87
48244;BME280;34053;51.088;6.572;2023-05-22T01:47:18;100771.66;;;20.85;59.93
48244;BME280;34053;51.088;6.572;2023-05-22T01:50:09;100765.69;;;20.82;60.19
48244;BME280;34053;51.088;6.572;2023-05-22T01:56:52;100752.78;;;20.75;60.02
48244;BME280;34053;51.088;6.572;2023-05-22T01:59:52;100754.88;;;20.70;60.23
48244;BME280;34053;51.088;6.572;2023-05-22T02:02:48;100758.53;;;20.69;60.24
48244;BME280;34053;51.088;6.572;2023-05-22T02:05:39;100749.78;;;20.67;60.23
48244;BME280;34053;51.088;6.572;2023-05-22T02:08:31;100749.00;;;20.65;60.06
48244;BME280;34053;51.088;6.572;2023-05-22T02:11:23;100750.84;;;20.65;60.19
48244;BME280;34053;51.088;6.572;2023-05-22T02:14:17;100750.19;;;20.61;60.55
48244;BME280;34053;51.088;6.572;2023-05-22T02:17:08;100747.94;;;20.55;60.49
48244;BME280;34053;51.088;6.572;2023-05-22T02:19:58;100748.88;;;20.54;60.48
48244;BME280;34053;51.088;6.572;2023-05-22T02:22:49;100751.16;;;20.47;60.44
48244;BME280;34053;51.088;6.572;2023-05-22T02:25:40;100746.31;;;20.26;63.43
48244;BME280;34053;51.088;6.572;2023-05-22T02:28:32;100754.56;;;20.36;62.03
48244;BME280;34053;51.088;6.572;2023-05-22T02:31:23;100749.53;;;20.32;61.30
48244;BME280;34053;51.088;6.572;2023-05-22T02:34:13;100752.09;;;20.33;60.95
48244;BME280;34053;51.088;6.572;2023-05-22T02:37:04;100751.97;;;20.35;60.82
48244;BME280;34053;51.088;6.572;2023-05-22T02:39:56;100747.19;;;20.27;61.10
48244;BME280;34053;51.088;6.572;2023-05-22T02:42:47;100747.19;;;20.27;60.94
48244;BME280;34053;51.088;6.572;2023-05-22T02:45:38;100750.03;;;20.24;60.63
48244;BME280;34053;51.088;6.572;2023-05-22T02:48:28;100745.00;;;20.19;61.11
48244;BME280;34053;51.088;6.572;2023-05-22T02:51:19;100751.22;;;20.20;60.91
48244;BME280;34053;51.088;6.572;2023-05-22T02:54:10;100744.38;;;20.16;60.58
48244;BME280;34053;51.088;6.572;2023-05-22T02:57:01;100744.69;;;20.11;61.04
48244;BME280;34053;51.088;6.572;2023-05-22T02:59:52;100742.97;;;20.10;61.25
48244;BME280;34053;51.088;6.572;2023-05-22T03:02:43;100743.09;;;20.08;61.52
48244;BME280;34053;51.088;6.572;2023-05-22T03:05:34;100741.03;;;19.99;61.03
48244;BME280;34053;51.088;6.572;2023-05-22T03:08:25;100740.25;;;19.97;61.18
48244;BME280;34053;51.088;6.572;2023-05-22T03:11:17;100747.31;;;19.98;60.47
48244;BME280;34053;51.088;6.572;2023-05-22T03:14:08;100744.88;;;19.95;61.22
48244;BME280;34053;51.088;6.572;2023-05-22T03:16:59;100747.91;;;19.89;61.63
48244;BME280;34053;51.088;6.572;2023-05-22T03:19:50;100746.41;;;19.85;60.77
48244;BME280;34053;51.088;6.572;2023-05-22T03:22:44;100740.88;;;19.88;61.70
48244;BME280;34053;51.088;6.572;2023-05-22T03:25:35;100742.97;;;19.82;61.30
48244;BME280;34053;51.088;6.572;2023-05-22T03:28:26;100738.69;;;19.80;61.68
48244;BME280;34053;51.088;6.572;2023-05-22T03:31:17;100738.84;;;19.64;62.98
48244;BME280;34053;51.088;6.572;2023-05-22T03:34:08;100742.06;;;19.69;61.52
48244;BME280;34053;51.088;6.572;2023-05-22T03:36:58;100741.97;;;19.71;61.57
48244;BME280;34053;51.088;6.572;2023-05-22T03:39:49;100741.31;;;19.67;63.37
48244;BME280;34053;51.088;6.572;2023-05-22T03:42:40;100742.44;;;19.63;62.27
48244;BME280;34053;51.088;6.572;2023-05-22T03:45:31;100746.94;;;19.62;62.28
48244;BME280;34053;51.088;6.572;2023-05-22T03:48:22;100742.84;;;19.57;61.58
48244;BME280;34053;51.088;6.572;2023-05-22T03:51:13;100747.34;;;19.56;62.35
48244;BME280;34053;51.088;6.572;2023-05-22T03:54:04;100753.50;;;19.57;63.96
48244;BME280;34053;51.088;6.572;2023-05-22T03:56:54;100746.47;;;19.56;62.42
48244;BME280;34053;51.088;6.572;2023-05-22T03:59:45;100746.88;;;19.49;62.92
48244;BME280;34053;51.088;6.572;2023-05-22T04:02:36;100747.94;;;19.47;62.84
48244;BME280;34053;51.088;6.572;2023-05-22T04:05:34;100751.81;;;19.41;63.22
48244;BME280;34053;51.088;6.572;2023-05-22T04:08:24;100750.69;;;19.31;64.98
48244;BME280;34053;51.088;6.572;2023-05-22T04:11:15;100754.69;;;19.24;65.64
48244;BME280;34053;51.088;6.572;2023-05-22T04:14:07;100757.28;;;19.11;65.75
48244;BME280;34053;51.088;6.572;2023-05-22T04:16:58;100756.06;;;19.02;67.33
48244;BME280;34053;51.088;6.572;2023-05-22T04:19:49;100760.44;;;19.03;67.32
48244;BME280;34053;51.088;6.572;2023-05-22T04:22:40;100759.75;;;18.99;67.38
48244;BME280;34053;51.088;6.572;2023-05-22T04:25:31;100762.72;;;18.95;67.84
48244;BME280;34053;51.088;6.572;2023-05-22T04:28:23;100766.88;;;18.99;66.91
48244;BME280;34053;51.088;6.572;2023-05-22T04:31:16;100768.94;;;18.79;68.97
48244;BME280;34053;51.088;6.572;2023-05-22T04:34:10;100770.06;;;18.90;67.71
48244;BME280;34053;51.088;6.572;2023-05-22T04:37:03;100771.63;;;18.94;66.28
48244;BME280;34053;51.088;6.572;2023-05-22T04:39:54;100771.53;;;18.50;70.67
48244;BME280;34053;51.088;6.572;2023-05-22T04:42:47;100775.91;;;18.51;71.17
48244;BME280;34053;51.088;6.572;2023-05-22T04:45:39;100781.22;;;18.51;71.21
48244;BME280;34053;51.088;6.572;2023-05-22T04:48:31;100775.53;;;18.72;68.60
48244;BME280;34053;51.088;6.572;2023-05-22T04:51:23;100777.75;;;18.65;70.01
48244;BME280;34053;51.088;6.572;2023-05-22T04:54:14;100781.63;;;18.74;67.36
48244;BME280;34053;51.088;6.572;2023-05-22T04:57:04;100783.91;;;18.80;67.74
48244;BME280;34053;51.088;6.572;2023-05-22T04:59:55;100780.31;;;18.81;66.94
48244;BME280;34053;51.088;6.572;2023-05-22T05:02:47;100778.66;;;18.50;70.33
48244;BME280;34053;51.088;6.572;2023-05-22T05:05:37;100779.69;;;18.47;71.66
48244;BME280;34053;51.088;6.572;2023-05-22T05:08:28;100778.56;;;18.51;70.58
48244;BME280;34053;51.088;6.572;2023-05-22T05:11:19;100784.81;;;18.50;69.29
48244;BME280;34053;51.088;6.572;2023-05-22T05:14:11;100779.22;;;18.55;68.77
48244;BME280;34053;51.088;6.572;2023-05-22T05:17:01;100775.53;;;18.58;70.37
48244;BME280;34053;51.088;6.572;2023-05-22T05:19:52;100786.28;;;18.70;68.85
48244;BME280;34053;51.088;6.572;2023-05-22T05:22:43;100778.66;;;18.50;71.28
48244;BME280;34053;51.088;6.572;2023-05-22T05:25:35;100785.34;;;18.41;72.36
48244;BME280;34053;51.088;6.572;2023-05-22T05:28:28;100782.50;;;18.30;71.87
48244;BME280;34053;51.088;6.572;2023-05-22T05:31:19;100786.03;;;18.14;73.38
48244;BME280;34053;51.088;6.572;2023-05-22T05:34:10;100788.19;;;18.07;73.84
48244;BME280;34053;51.088;6.572;2023-05-22T05:37:01;100791.50;;;17.95;75.23
48244;BME280;34053;51.088;6.572;2023-05-22T05:39:52;100790.91;;;18.22;71.99
48244;BME280;34053;51.088;6.572;2023-05-22T05:42:43;100788.09;;;18.25;72.82
48244;BME280;34053;51.088;6.572;2023-05-22T05:45:33;100801.25;;;18.27;72.73
48244;BME280;34053;51.088;6.572;2023-05-22T05:48:24;100801.00;;;18.15;73.82
48244;BME280;34053;51.088;6.572;2023-05-22T05:51:15;100807.03;;;18.03;74.85
48244;BME280;34053;51.088;6.572;2023-05-22T05:54:06;100791.94;;;18.19;72.22
48244;BME280;34053;51.088;6.572;2023-05-22T05:56:56;100797.63;;;18.13;73.83
48244;BME280;34053;51.088;6.572;2023-05-22T05:59:47;100796.59;;;17.84;76.19
48244;BME280;34053;51.088;6.572;2023-05-22T06:02:38;100797.16;;;17.73;76.91
48244;BME280;34053;51.088;6.572;2023-05-22T06:05:29;100801.44;;;17.91;75.74
48244;BME280;34053;51.088;6.572;2023-05-22T06:08:19;100807.47;;;18.11;73.64
48244;BME280;34053;51.088;6.572;2023-05-22T06:11:11;100810.13;;;18.11;73.27
48244;BME280;34053;51.088;6.572;2023-05-22T06:14:03;100809.06;;;18.30;72.70
48244;BME280;34053;51.088;6.572;2023-05-22T06:16:54;100814.41;;;17.98;74.57
48244;BME280;34053;51.088;6.572;2023-05-22T06:19:45;100816.78;;;18.18;72.22
48244;BME280;34053;51.088;6.572;2023-05-22T06:22:36;100815.16;;;18.00;74.86
48244;BME280;34053;51.088;6.572;2023-05-22T06:25:27;100804.28;;;17.88;75.80
48244;BME280;34053;51.088;6.572;2023-05-22T06:28:19;100814.56;;;18.11;74.45
48244;BME280;34053;51.088;6.572;2023-05-22T06:31:10;100810.59;;;17.86;75.96
48244;BME280;34053;51.088;6.572;2023-05-22T06:34:00;100814.03;;;17.88;75.92
48244;BME280;34053;51.088;6.572;2023-05-22T06:36:51;100815.00;;;17.71;77.27
48244;BME280;34053;51.088;6.572;2023-05-22T06:39:42;100808.91;;;17.69;76.96
48244;BME280;34053;51.088;6.572;2023-05-22T06:42:33;100822.25;;;17.51;78.06
48244;BME280;34053;51.088;6.572;2023-05-22T06:45:23;100824.56;;;17.57;77.65
48244;BME280;34053;51.088;6.572;2023-05-22T06:48:15;100838.19;;;17.67;77.34
48244;BME280;34053;51.088;6.572;2023-05-22T06:51:06;100832.63;;;17.72;75.68
48244;BME280;34053;51.088;6.572;2023-05-22T06:53:57;100841.47;;;18.04;74.12
48244;BME280;34053;51.088;6.572;2023-05-22T06:56:48;100837.59;;;18.10;73.92
48244;BME280;34053;51.088;6.572;2023-05-22T06:59:39;100841.63;;;18.17;74.18
48244;BME280;34053;51.088;6.572;2023-05-22T07:02:30;100840.63;;;18.04;74.64
48244;BME280;34053;51.088;6.572;2023-05-22T07:05:20;100856.41;;;17.89;75.94
48244;BME280;34053;51.088;6.572;2023-05-22T07:08:11;100849.31;;;18.06;74.53
48244;BME280;34053;51.088;6.572;2023-05-22T07:11:02;100851.72;;;18.27;72.48
48244;BME280;34053;51.088;6.572;2023-05-22T07:13:56;100860.97;;;18.19;73.66
48244;BME280;34053;51.088;6.572;2023-05-22T07:16:47;100857.53;;;17.85;76.25
48244;BME280;34053;51.088;6.572;2023-05-22T07:19:37;100854.06;;;18.17;73.98
48244;BME280;34053;51.088;6.572;2023-05-22T07:22:28;100860.50;;;18.43;72.60
48244;BME280;34053;51.088;6.572;2023-05-22T07:25:19;100860.63;;;18.42;72.35
48244;BME280;34053;51.088;6.572;2023-05-22T07:28:10;100860.31;;;18.00;75.45
48244;BME280;34053;51.088;6.572;2023-05-22T07:31:01;100870.56;;;18.06;75.64
48244;BME280;34053;51.088;6.572;2023-05-22T07:33:51;100866.59;;;17.81;76.65
48244;BME280;34053;51.088;6.572;2023-05-22T07:36:42;100862.59;;;17.90;76.27
48244;BME280;34053;51.088;6.572;2023-05-22T07:39:33;100865.06;;;17.77;76.96
48244;BME280;34053;51.088;6.572;2023-05-22T07:42:24;100869.19;;;17.83;76.67
48244;BME280;34053;51.088;6.572;2023-05-22T07:45:15;100865.47;;;17.69;77.55
48244;BME280;34053;51.088;6.572;2023-05-22T07:48:06;100875.44;;;17.82;77.06
48244;BME280;34053;51.088;6.572;2023-05-22T07:50:57;100867.13;;;17.88;76.95
48244;BME280;34053;51.088;6.572;2023-05-22T07:53:47;100866.66;;;18.13;74.33
48244;BME280;34053;51.088;6.572;2023-05-22T07:56:41;100867.59;;;18.12;75.40
48244;BME280;34053;51.088;6.572;2023-05-22T07:59:32;100871.75;;;18.16;75.11
48244;BME280;34053;51.088;6.572;2023-05-22T08:02:23;100878.28;;;18.43;73.43
48244;BME280;34053;51.088;6.572;2023-05-22T08:05:14;100879.22;;;18.42;73.53
48244;BME280;34053;51.088;6.572;2023-05-22T08:08:05;100879.28;;;18.40;74.24
48244;BME280;34053;51.088;6.572;2023-05-22T08:10:56;100887.97;;;18.28;75.05
48244;BME280;34053;51.088;6.572;2023-05-22T08:13:46;100880.00;;;18.28;74.45
48244;BME280;34053;51.088;6.572;2023-05-22T08:16:37;100881.88;;;18.25;74.49
48244;BME280;34053;51.088;6.572;2023-05-22T08:19:28;100890.97;;;18.21;74.56
48244;BME280;34053;51.088;6.572;2023-05-22T08:22:19;100878.97;;;18.14;75.49
48244;BME280;34053;51.088;6.572;2023-05-22T08:25:10;100885.88;;;18.33;74.17
48244;BME280;34053;51.088;6.572;2023-05-22T08:28:00;100899.16;;;18.49;73.30
48244;BME280;34053;51.088;6.572;2023-05-22T08:30:51;100891.50;;;18.59;73.04
48244;BME280;34053;51.088;6.572;2023-05-22T08:33:42;100888.16;;;18.55;73.33
48244;BME280;34053;51.088;6.572;2023-05-22T08:36:33;100887.38;;;18.69;72.55
48244;BME280;34053;51.088;6.572;2023-05-22T08:39:24;100885.66;;;18.68;72.89
48244;BME280;34053;51.088;6.572;2023-05-22T08:42:15;100884.88;;;18.66;72.99
48244;BME280;34053;51.088;6.572;2023-05-22T08:45:06;100893.09;;;18.77;72.40
48244;BME280;34053;51.088;6.572;2023-05-22T08:47:57;100889.28;;;18.81;71.97
48244;BME280;34053;51.088;6.572;2023-05-22T08:50:52;100894.00;;;18.46;73.51
48244;BME280;34053;51.088;6.572;2023-05-22T08:53:48;100902.94;;;18.75;72.17
48244;BME280;34053;51.088;6.572;2023-05-22T08:56:41;100899.63;;;18.55;73.15
48244;BME280;34053;51.088;6.572;2023-05-22T08:59:37;100898.44;;;18.92;71.17
48244;BME280;34053;51.088;6.572;2023-05-22T09:02:28;100904.91;;;18.87;71.18
48244;BME280;34053;51.088;6.572;2023-05-22T09:05:20;100899.88;;;18.67;72.91
48244;BME280;34053;51.088;6.572;2023-05-22T09:08:16;100905.91;;;18.85;71.50
48244;BME280;34053;51.088;6.572;2023-05-22T09:11:08;100905.94;;;18.38;73.50
48244;BME280;34053;51.088;6.572;2023-05-22T09:14:08;100912.09;;;18.07;74.59
48244;BME280;34053;51.088;6.572;2023-05-22T09:16:59;100909.75;;;17.69;76.13
48244;BME280;34053;51.088;6.572;2023-05-22T09:19:50;100912.72;;;18.12;74.40
48244;BME280;34053;51.088;6.572;2023-05-22T09:22:41;100908.84;;;18.34;73.31
48244;BME280;34053;51.088;6.572;2023-05-22T09:25:32;100911.97;;;18.56;72.59
48244;BME280;34053;51.088;6.572;2023-05-22T09:28:23;100914.41;;;18.45;72.82
48244;BME280;34053;51.088;6.572;2023-05-22T09:31:14;100909.69;;;18.50;72.72
48244;BME280;34053;51.088;6.572;2023-05-22T09:34:06;100917.28;;;18.72;72.05
48244;BME280;34053;51.088;6.572;2023-05-22T09:37:01;100916.97;;;18.47;72.98
48244;BME280;34053;51.088;6.572;2023-05-22T09:39:55;100919.56;;;18.79;71.86
48244;BME280;34053;51.088;6.572;2023-05-22T09:42:46;100921.59;;;18.90;71.52
48244;BME280;34053;51.088;6.572;2023-05-22T09:45:37;100926.34;;;18.84;71.85
48244;BME280;34053;51.088;6.572;2023-05-22T09:48:33;100916.25;;;19.06;70.67
48244;BME280;34053;51.088;6.572;2023-05-22T09:51:25;100923.38;;;18.75;72.33
48244;BME280;34053;51.088;6.572;2023-05-22T09:54:19;100924.09;;;18.46;73.89
48244;BME280;34053;51.088;6.572;2023-05-22T09:57:12;100922.03;;;18.98;71.44
48244;BME280;34053;51.088;6.572;2023-05-22T10:00:04;100923.09;;;18.79;72.22
48244;BME280;34053;51.088;6.572;2023-05-22T10:03:07;100927.22;;;18.69;72.38
48244;BME280;34053;51.088;6.572;2023-05-22T10:05:59;100922.22;;;18.79;72.34
48244;BME280;34053;51.088;6.572;2023-05-22T10:08:56;100918.44;;;18.99;71.58
48244;BME280;34053;51.088;6.572;2023-05-22T10:11:52;100919.34;;;19.28;69.69
48244;BME280;34053;51.088;6.572;2023-05-22T10:14:44;100928.09;;;19.30;70.09
48244;BME280;34053;51.088;6.572;2023-05-22T10:17:36;100933.78;;;19.24;70.20
48244;BME280;34053;51.088;6.572;2023-05-22T10:20:28;100930.19;;;19.25;70.75
48244;BME280;34053;51.088;6.572;2023-05-22T10:23:19;100924.00;;;19.39;70.05
48244;BME280;34053;51.088;6.572;2023-05-22T10:26:12;100927.97;;;19.17;70.91
48244;BME280;34053;51.088;6.572;2023-05-22T10:29:09;100928.63;;;19.21;70.58
48244;BME280;34053;51.088;6.572;2023-05-22T10:32:28;100926.63;;;19.10;70.94
48244;BME280;34053;51.088;6.572;2023-05-22T10:41:33;100920.56;;;19.23;70.42
48244;BME280;34053;51.088;6.572;2023-05-22T10:44:24;100920.66;;;19.35;70.49
48244;BME280;34053;51.088;6.572;2023-05-22T10:47:15;100917.66;;;19.42;70.50
48244;BME280;34053;51.088;6.572;2023-05-22T10:50:10;100916.44;;;19.62;69.19
48244;BME280;34053;51.088;6.572;2023-05-22T10:56:17;100915.44;;;19.48;69.80
48244;BME280;34053;51.088;6.572;2023-05-22T10:59:07;100909.19;;;19.64;69.47
48244;BME280;34053;51.088;6.572;2023-05-22T11:02:04;100917.34;;;19.75;68.88
48244;BME280;34053;51.088;6.572;2023-05-22T11:08:33;100906.88;;;19.72;69.80
48244;BME280;34053;51.088;6.572;2023-05-22T11:11:26;100910.69;;;19.97;68.37
48244;BME280;34053;51.088;6.572;2023-05-22T11:14:19;100902.63;;;19.99;68.10
48244;BME280;34053;51.088;6.572;2023-05-22T11:17:11;100905.91;;;20.17;67.99
48244;BME280;34053;51.088;6.572;2023-05-22T11:23:09;100905.09;;;20.29;67.39
48244;BME280;34053;51.088;6.572;2023-05-22T11:26:26;100895.97;;;20.33;67.64
48244;BME280;34053;51.088;6.572;2023-05-22T11:29:17;100900.13;;;20.37;67.13
48244;BME280;34053;51.088;6.572;2023-05-22T11:32:09;100898.47;;;20.22;67.57
48244;BME280;34053;51.088;6.572;2023-05-22T11:35:04;100893.56;;;20.56;67.16
48244;BME280;34053;51.088;6.572;2023-05-22T11:37:57;100892.97;;;20.65;67.02
48244;BME280;34053;51.088;6.572;2023-05-22T11:40:50;100896.00;;;20.73;66.77
48244;BME280;34053;51.088;6.572;2023-05-22T11:43:41;100894.75;;;20.52;66.43
48244;BME280;34053;51.088;6.572;2023-05-22T11:46:32;100884.91;;;20.80;66.60
48244;BME280;34053;51.088;6.572;2023-05-22T11:49:24;100876.94;;;20.92;66.90
48244;BME280;34053;51.088;6.572;2023-05-22T11:52:15;100878.22;;;21.13;66.01
48244;BME280;34053;51.088;6.572;2023-05-22T11:55:07;100877.38;;;21.12;65.77
48244;BME280;34053;51.088;6.572;2023-05-22T11:57:58;100873.84;;;21.12;65.89
48244;BME280;34053;51.088;6.572;2023-05-22T12:00:50;100878.03;;;21.29;65.43
48244;BME280;34053;51.088;6.572;2023-05-22T12:03:41;100875.47;;;21.40;64.58
48244;BME280;34053;51.088;6.572;2023-05-22T12:06:32;100876.75;;;21.21;65.67
48244;BME280;34053;51.088;6.572;2023-05-22T12:09:23;100872.25;;;21.48;64.93
48244;BME280;34053;51.088;6.572;2023-05-22T12:12:14;100872.88;;;21.64;64.33
48244;BME280;34053;51.088;6.572;2023-05-22T12:15:06;100862.00;;;21.67;64.83
48244;BME280;34053;51.088;6.572;2023-05-22T12:17:57;100868.66;;;21.86;64.69
48244;BME280;34053;51.088;6.572;2023-05-22T12:20:51;100863.84;;;21.91;63.76
48244;BME280;34053;51.088;6.572;2023-05-22T12:23:50;100868.97;;;21.94;63.23
48244;BME280;34053;51.088;6.572;2023-05-22T12:26:48;100862.44;;;21.98;63.79
48244;BME280;34053;51.088;6.572;2023-05-22T12:29:40;100854.31;;;22.24;62.72
48244;BME280;34053;51.088;6.572;2023-05-22T12:32:31;100867.72;;;22.36;62.57
48244;BME280;34053;51.088;6.572;2023-05-22T12:35:22;100858.69;;;22.50;62.39
48244;BME280;34053;51.088;6.572;2023-05-22T12:38:13;100856.53;;;22.30;61.79
48244;BME280;34053;51.088;6.572;2023-05-22T12:41:04;100854.25;;;22.61;61.76
48244;BME280;34053;51.088;6.572;2023-05-22T12:43:55;100855.47;;;22.69;60.58
48244;BME280;34053;51.088;6.572;2023-05-22T12:46:46;100850.03;;;22.82;60.52
48244;BME280;34053;51.088;6.572;2023-05-22T12:49:36;100854.25;;;22.61;60.00
48244;BME280;34053;51.088;6.572;2023-05-22T12:52:27;100850.34;;;23.01;59.79
48244;BME280;34053;51.088;6.572;2023-05-22T12:55:18;100849.75;;;23.09;60.15
48244;BME280;34053;51.088;6.572;2023-05-22T12:58:09;100843.22;;;23.24;59.98
48244;BME280;34053;51.088;6.572;2023-05-22T13:00:59;100844.81;;;23.38;59.69
48244;BME280;34053;51.088;6.572;2023-05-22T13:03:51;100837.84;;;23.47;59.01
48244;BME280;34053;51.088;6.572;2023-05-22T13:06:42;100836.16;;;23.57;58.44
48244;BME280;34053;51.088;6.572;2023-05-22T13:09:32;100835.63;;;23.07;58.14
48244;BME280;34053;51.088;6.572;2023-05-22T13:12:23;100842.97;;;23.50;58.40
48244;BME280;34053;51.088;6.572;2023-05-22T13:15:17;100840.63;;;23.80;58.42
48244;BME280;34053;51.088;6.572;2023-05-22T13:18:08;100844.84;;;23.94;57.67
48244;BME280;34053;51.088;6.572;2023-05-22T13:20:58;100844.38;;;24.00;57.96
48244;BME280;34053;51.088;6.572;2023-05-22T13:23:50;100835.84;;;24.06;56.92
48244;BME280;34053;51.088;6.572;2023-05-22T13:26:41;100836.41;;;24.21;57.54
48244;BME280;34053;51.088;6.572;2023-05-22T13:29:32;100834.84;;;24.07;57.82
48244;BME280;34053;51.088;6.572;2023-05-22T13:32:23;100833.13;;;24.39;56.77
48244;BME280;34053;51.088;6.572;2023-05-22T13:35:14;100829.44;;;24.51;55.57
48244;BME280;34053;51.088;6.572;2023-05-22T13:38:05;100834.13;;;24.59;55.88
48244;BME280;34053;51.088;6.572;2023-05-22T13:40:56;100834.59;;;24.64;56.12
48244;BME280;34053;51.088;6.572;2023-05-22T13:43:49;100824.72;;;24.86;56.86
48244;BME280;34053;51.088;6.572;2023-05-22T13:46:40;100817.25;;;24.89;55.58
48244;BME280;34053;51.088;6.572;2023-05-22T13:49:30;100816.09;;;25.13;55.34
48244;BME280;34053;51.088;6.572;2023-05-22T13:52:21;100821.06;;;25.18;54.45
48244;BME280;34053;51.088;6.572;2023-05-22T13:55:12;100826.25;;;25.09;53.84
48244;BME280;34053;51.088;6.572;2023-05-22T13:58:03;100826.25;;;25.09;54.75
48244;BME280;34053;51.088;6.572;2023-05-22T14:00:54;100813.50;;;25.23;53.85
48244;BME280;34053;51.088;6.572;2023-05-22T14:03:45;100814.88;;;25.48;53.47
48244;BME280;34053;51.088;6.572;2023-05-22T14:06:36;100819.25;;;25.49;54.38
48244;BME280;34053;51.088;6.572;2023-05-22T14:09:29;100823.56;;;25.61;54.39
48244;BME280;34053;51.088;6.572;2023-05-22T14:12:19;100823.66;;;25.50;53.55
48244;BME280;34053;51.088;6.572;2023-05-22T14:15:10;100828.78;;;25.63;52.98
48244;BME280;34053;51.088;6.572;2023-05-22T14:18:01;100832.75;;;25.69;52.97
48244;BME280;34053;51.088;6.572;2023-05-22T14:20:52;100838.56;;;25.84;52.51
48244;BME280;34053;51.088;6.572;2023-05-22T14:23:43;100844.09;;;25.92;52.33
48244;BME280;34053;51.088;6.572;2023-05-22T14:26:34;100842.94;;;25.85;51.93
48244;BME280;34053;51.088;6.572;2023-05-22T14:29:25;100843.41;;;25.90;52.17
48244;BME280;34053;51.088;6.572;2023-05-22T14:32:15;100843.53;;;25.88;52.44
48244;BME280;34053;51.088;6.572;2023-05-22T14:35:06;100837.88;;;26.01;52.39
48244;BME280;34053;51.088;6.572;2023-05-22T14:37:58;100838.72;;;25.92;51.70
48244;BME280;34053;51.088;6.572;2023-05-22T14:40:49;100830.28;;;26.26;51.90
48244;BME280;34053;51.088;6.572;2023-05-22T14:43:40;100830.16;;;26.37;51.16
48244;BME280;34053;51.088;6.572;2023-05-22T14:46:31;100824.06;;;26.35;52.05
48244;BME280;34053;51.088;6.572;2023-05-22T14:49:22;100825.63;;;26.38;51.02
48244;BME280;34053;51.088;6.572;2023-05-22T14:52:13;100810.88;;;26.52;51.07
48244;BME280;34053;51.088;6.572;2023-05-22T14:55:04;100812.13;;;26.67;51.04
48244;BME280;34053;51.088;6.572;2023-05-22T14:57:55;100810.84;;;26.71;50.38
48244;BME280;34053;51.088;6.572;2023-05-22T15:00:46;100809.31;;;26.59;49.85
48244;BME280;34053;51.088;6.572;2023-05-22T15:03:37;100810.81;;;27.01;49.31
48244;BME280;34053;51.088;6.572;2023-05-22T15:06:28;100809.09;;;27.00;49.73
48244;BME280;34053;51.088;6.572;2023-05-22T15:09:18;100804.22;;;27.13;48.42
48244;BME280;34053;51.088;6.572;2023-05-22T15:12:09;100800.25;;;26.60;49.15
48244;BME280;34053;51.088;6.572;2023-05-22T15:15:00;100801.47;;;27.23;48.88
48244;BME280;34053;51.088;6.572;2023-05-22T15:17:51;100795.47;;;27.39;48.40
48244;BME280;34053;51.088;6.572;2023-05-22T15:20:42;100801.56;;;27.41;47.20
48244;BME280;34053;51.088;6.572;2023-05-22T15:23:32;100794.84;;;27.55;46.72
48244;BME280;34053;51.088;6.572;2023-05-22T15:26:23;100785.63;;;27.94;47.03
48244;BME280;34053;51.088;6.572;2023-05-22T15:29:16;100786.31;;;27.78;47.18